createdAt,value
2023-07-19T00:01:07.972Z,101492.78
2023-07-19T00:03:34.967Z,101488.72
2023-07-19T00:06:14.275Z,101457.44
2023-07-19T00:08:44.102Z,101473.81
2023-07-19T00:11:10.846Z,101476.03
2023-07-19T00:13:37.570Z,101451.69
2023-07-19T00:16:04.924Z,101465.44
2023-07-19T00:18:31.910Z,101474.03
2023-07-19T00:20:58.776Z,101466.34
2023-07-19T00:23:25.682Z,101478.28
2023-07-19T00:25:52.541Z,101486.41
2023-07-19T00:28:19.520Z,101484.25
2023-07-19T00:30:46.233Z,101482.59
2023-07-19T00:33:13.076Z,101475.81
2023-07-19T00:35:44.439Z,101483.59
2023-07-19T00:38:11.360Z,101479.94
2023-07-19T00:40:38.380Z,101435.16
2023-07-19T00:43:14.260Z,101467.22
2023-07-19T00:45:47.718Z,101459.38
2023-07-19T00:48:17.127Z,101458.41
2023-07-19T00:50:45.423Z,101459.03
2023-07-19T00:53:15.680Z,101461.22
2023-07-19T00:55:42.841Z,101467.91
2023-07-19T00:58:09.630Z,101457.59
2023-07-19T01:00:36.501Z,101454.94
2023-07-19T01:03:04.275Z,101460.31
2023-07-19T01:05:31.214Z,101466.91
2023-07-19T01:07:59.989Z,101464.56
2023-07-19T01:10:28.352Z,101468.38
2023-07-19T01:13:12.689Z,101474.28
2023-07-19T01:15:41.562Z,101488.13
2023-07-19T01:18:08.626Z,101481.78
2023-07-19T01:20:36.090Z,101471.97
2023-07-19T01:23:03.566Z,101474.19
2023-07-19T01:25:30.784Z,101463.16
2023-07-19T01:27:58.512Z,101460.09
2023-07-19T01:30:26.119Z,101472.28
2023-07-19T01:32:53.283Z,101461.28
2023-07-19T01:35:20.173Z,101445.22
2023-07-19T01:37:48.125Z,101452.84
2023-07-19T01:40:15.926Z,101455.66
2023-07-19T01:42:43.097Z,101454.69
2023-07-19T01:45:10.340Z,101455.28
2023-07-19T01:47:37.214Z,101441.66
2023-07-19T01:50:04.514Z,101455.38
2023-07-19T01:52:31.617Z,101443.88
2023-07-19T01:54:58.795Z,101452.31
2023-07-19T01:57:26.142Z,101443.50
2023-07-19T01:59:53.390Z,101442.84
2023-07-19T02:02:20.877Z,101449.88
2023-07-19T02:04:48.160Z,101458.31
2023-07-19T02:07:15.325Z,101440.22
2023-07-19T02:09:44.527Z,101456.41
2023-07-19T02:12:11.464Z,101450.94
2023-07-19T02:14:38.584Z,101444.00
2023-07-19T02:17:06.339Z,101453.81
2023-07-19T02:19:33.520Z,101455.19
2023-07-19T02:22:00.463Z,101440.22
2023-07-19T02:24:27.443Z,101437.44
2023-07-19T02:26:54.404Z,101435.50
2023-07-19T02:29:21.508Z,101424.91
2023-07-19T02:31:48.321Z,101413.34
2023-07-19T02:34:20.004Z,101410.25
2023-07-19T02:36:47.181Z,101391.88
2023-07-19T02:39:14.107Z,101403.06
2023-07-19T02:41:41.915Z,101394.91
2023-07-19T02:44:08.926Z,101381.13
2023-07-19T02:46:36.038Z,101394.97
2023-07-19T02:49:03.220Z,101396.50
2023-07-19T02:51:41.484Z,101381.75
2023-07-19T02:54:10.607Z,101383.50
2023-07-19T02:56:37.517Z,101379.72
2023-07-19T02:59:04.504Z,101374.88
2023-07-19T03:01:31.915Z,101381.81
2023-07-19T03:04:01.041Z,101381.31
2023-07-19T03:06:29.508Z,101382.88
2023-07-19T03:08:56.838Z,101394.44
2023-07-19T03:11:23.905Z,101391.28
2023-07-19T03:13:50.858Z,101389.09
2023-07-19T03:16:17.774Z,101396.03
2023-07-19T03:18:44.764Z,101393.06
2023-07-19T03:21:11.973Z,101402.56
2023-07-19T03:23:39.698Z,101402.25
2023-07-19T03:26:08.602Z,101412.41
2023-07-19T03:28:35.558Z,101412.41
2023-07-19T03:31:02.554Z,101418.28
2023-07-19T03:33:29.593Z,101426.28
2023-07-19T03:35:56.789Z,101402.91
2023-07-19T03:38:23.874Z,101391.84
2023-07-19T03:40:50.908Z,101388.56
2023-07-19T03:43:17.868Z,101384.88
2023-07-19T03:45:44.790Z,101384.41
2023-07-19T03:48:11.813Z,101384.44
2023-07-19T03:50:38.800Z,101390.94
2023-07-19T03:53:07.983Z,101385.88
2023-07-19T03:55:34.992Z,101378.59
2023-07-19T03:58:02.029Z,101376.00
2023-07-19T04:00:29.515Z,101371.72
2023-07-19T04:02:56.659Z,101374.25
2023-07-19T04:05:23.840Z,101358.97
2023-07-19T04:07:51.221Z,101372.31
2023-07-19T04:10:18.122Z,101367.66
2023-07-19T04:12:45.110Z,101380.19
2023-07-19T04:15:12.169Z,101379.50
2023-07-19T04:17:39.490Z,101395.22
2023-07-19T04:20:09.556Z,101391.59
2023-07-19T04:22:36.786Z,101399.75
2023-07-19T04:25:04.878Z,101397.38
2023-07-19T04:27:32.739Z,101385.94
2023-07-19T04:30:00.016Z,101396.94
2023-07-19T04:32:27.840Z,101404.03
2023-07-19T04:34:55.100Z,101405.88
2023-07-19T04:37:22.546Z,101417.56
2023-07-19T04:39:49.660Z,101403.59
2023-07-19T04:42:16.454Z,101409.31
2023-07-19T04:44:43.474Z,101372.44
2023-07-19T04:47:11.722Z,101399.75
2023-07-19T04:49:38.659Z,101394.81
2023-07-19T04:52:06.520Z,101386.09
2023-07-19T04:54:34.106Z,101391.69
2023-07-19T04:57:01.352Z,101391.69
2023-07-19T04:59:28.431Z,101384.22
2023-07-19T05:01:55.444Z,101381.16
2023-07-19T05:04:22.827Z,101340.78
2023-07-19T05:06:51.307Z,101389.16
2023-07-19T05:09:19.161Z,101396.22
2023-07-19T05:11:46.300Z,101388.63
2023-07-19T05:14:13.272Z,101385.78
2023-07-19T05:16:40.437Z,101386.22
2023-07-19T05:19:08.054Z,101389.69
2023-07-19T05:21:35.201Z,101349.09
2023-07-19T05:24:02.178Z,101392.38
2023-07-19T05:26:29.158Z,101387.53
2023-07-19T05:28:55.924Z,101390.88
2023-07-19T05:31:23.503Z,101390.59
2023-07-19T05:33:50.680Z,101384.66
2023-07-19T05:36:17.583Z,101383.06
2023-07-19T05:38:44.487Z,101369.25
2023-07-19T05:41:11.456Z,101380.41
2023-07-19T05:43:38.616Z,101372.25
2023-07-19T05:46:07.112Z,101366.97
2023-07-19T05:48:34.940Z,101375.19
2023-07-19T05:51:03.718Z,101380.00
2023-07-19T05:53:31.853Z,101385.78
2023-07-19T05:55:59.296Z,101371.56
2023-07-19T05:58:28.482Z,101374.50
2023-07-19T06:00:55.475Z,101369.44
2023-07-19T06:03:22.489Z,101367.69
2023-07-19T06:05:49.665Z,101365.59
2023-07-19T06:08:24.582Z,101362.31
2023-07-19T06:10:53.482Z,101361.13
2023-07-19T06:13:20.612Z,101350.31
2023-07-19T06:15:47.538Z,101352.09
2023-07-19T06:18:15.022Z,101358.00
2023-07-19T06:20:42.024Z,101362.56
2023-07-19T06:23:08.971Z,101360.94
2023-07-19T06:25:36.013Z,101360.94
2023-07-19T06:28:03.977Z,101359.00
2023-07-19T06:30:32.777Z,101323.34
2023-07-19T06:32:59.816Z,101344.00
2023-07-19T06:35:26.945Z,101351.09
2023-07-19T06:37:53.866Z,101353.47
2023-07-19T06:40:20.756Z,101355.22
2023-07-19T06:42:48.234Z,101303.81
2023-07-19T06:45:15.126Z,101351.00
2023-07-19T06:47:42.162Z,101347.56
2023-07-19T06:50:09.847Z,101342.50
2023-07-19T06:52:39.965Z,101333.06
2023-07-19T06:55:07.601Z,101334.78
2023-07-19T06:57:34.479Z,101336.41
2023-07-19T07:00:01.617Z,101344.28
2023-07-19T07:02:29.298Z,101336.78
2023-07-19T07:04:56.165Z,101342.56
2023-07-19T07:07:23.284Z,101349.34
2023-07-19T07:09:50.353Z,101348.19
2023-07-19T07:12:17.622Z,101335.94
2023-07-19T07:14:44.546Z,101341.91
2023-07-19T07:17:11.525Z,101338.38
2023-07-19T07:19:38.476Z,101347.38
2023-07-19T07:22:05.796Z,101348.53
2023-07-19T07:24:32.866Z,101343.78
2023-07-19T07:26:59.731Z,101361.03
2023-07-19T07:29:26.527Z,101353.47
2023-07-19T07:31:53.287Z,101360.72
2023-07-19T07:34:21.358Z,101363.28
2023-07-19T07:36:51.425Z,101363.19
2023-07-19T07:39:19.114Z,101360.00
2023-07-19T07:41:46.816Z,101335.78
2023-07-19T07:44:14.335Z,101361.38
2023-07-19T07:46:41.421Z,101363.72
2023-07-19T07:49:11.282Z,101359.72
2023-07-19T07:51:38.451Z,101365.81
2023-07-19T07:54:05.363Z,101374.38
2023-07-19T07:56:32.218Z,101367.91
2023-07-19T07:58:59.311Z,101362.06
2023-07-19T08:01:26.847Z,101362.97
2023-07-19T08:03:54.654Z,101353.66
2023-07-19T08:06:21.930Z,101340.72
2023-07-19T08:08:49.106Z,101350.50
2023-07-19T08:11:16.218Z,101344.56
2023-07-19T08:13:43.151Z,101343.75
2023-07-19T08:16:10.257Z,101342.03
2023-07-19T08:18:37.422Z,101340.47
2023-07-19T08:21:07.222Z,101335.47
2023-07-19T08:23:34.556Z,101336.91
2023-07-19T08:26:01.556Z,101338.16
2023-07-19T08:28:28.566Z,101343.78
2023-07-19T08:30:55.906Z,101268.66
2023-07-19T08:33:24.525Z,101308.81
2023-07-19T08:35:52.411Z,101295.13
2023-07-19T08:38:19.981Z,101316.28
2023-07-19T08:41:07.116Z,101296.25
2023-07-19T08:43:38.417Z,101318.97
2023-07-19T08:46:06.487Z,101307.78
2023-07-19T08:48:34.796Z,101310.47
2023-07-19T08:51:03.736Z,101302.69
2023-07-19T08:53:30.723Z,101303.44
2023-07-19T08:55:58.624Z,101302.16
2023-07-19T08:58:25.596Z,101287.72
2023-07-19T09:00:52.682Z,101282.66
2023-07-19T09:03:26.959Z,101285.31
2023-07-19T09:05:55.119Z,101283.81
2023-07-19T09:08:22.072Z,101252.47
2023-07-19T09:10:49.495Z,101291.50
2023-07-19T09:13:20.400Z,101281.88
2023-07-19T09:15:50.323Z,101281.97
2023-07-19T09:18:17.391Z,101289.06
2023-07-19T09:20:44.330Z,101260.63
2023-07-19T09:23:15.019Z,101271.13
2023-07-19T09:25:56.289Z,101249.66
2023-07-19T09:28:24.318Z,101248.28
2023-07-19T09:31:15.983Z,101267.97
2023-07-19T09:33:55.329Z,101253.84
2023-07-19T09:36:22.466Z,101254.59
2023-07-19T09:38:49.919Z,101251.06
2023-07-19T09:41:17.321Z,101246.66
2023-07-19T09:43:45.780Z,101230.34
2023-07-19T09:46:13.106Z,101240.81
2023-07-19T09:48:40.137Z,101254.03
2023-07-19T09:51:07.608Z,101243.56
2023-07-19T09:53:38.995Z,101238.34
2023-07-19T09:56:08.687Z,101235.88
2023-07-19T09:58:36.690Z,101230.22
2023-07-19T10:01:03.709Z,101213.25
2023-07-19T10:03:30.755Z,101218.31
2023-07-19T10:05:58.701Z,101221.03
2023-07-19T10:08:25.662Z,101226.69
2023-07-19T10:11:00.145Z,101236.44
2023-07-19T10:14:07.012Z,101233.72
2023-07-19T10:16:38.379Z,101239.03
2023-07-19T10:19:15.514Z,101238.84
2023-07-19T10:22:05.614Z,101230.28
2023-07-19T10:24:39.198Z,101233.38
2023-07-19T10:27:09.790Z,101230.41
2023-07-19T10:29:45.460Z,101228.03
2023-07-19T10:32:13.103Z,101240.69
2023-07-19T10:34:45.346Z,101245.69
2023-07-19T10:37:12.704Z,101248.00
2023-07-19T10:39:39.666Z,101231.19
2023-07-19T10:42:08.060Z,101229.38
2023-07-19T10:44:35.001Z,101239.34
2023-07-19T10:47:04.936Z,101231.22
2023-07-19T10:49:33.109Z,101247.13
2023-07-19T10:52:00.301Z,101244.22
2023-07-19T10:54:28.708Z,101243.75
2023-07-19T10:56:59.308Z,101246.00
2023-07-19T10:59:26.135Z,101225.22
2023-07-19T11:01:52.982Z,101235.28
2023-07-19T11:04:20.129Z,101220.22
2023-07-19T11:07:00.040Z,101223.66
2023-07-19T11:09:29.817Z,101219.75
2023-07-19T11:11:57.595Z,101218.94
2023-07-19T11:14:32.532Z,101226.50
2023-07-19T11:17:00.527Z,101237.69
2023-07-19T11:19:42.124Z,101232.88
2023-07-19T11:22:10.372Z,101232.84
2023-07-19T11:24:42.018Z,101231.50
2023-07-19T11:27:13.377Z,101197.28
2023-07-19T11:29:40.353Z,101221.31
2023-07-19T11:32:22.124Z,101195.06
2023-07-19T11:34:59.843Z,101208.16
2023-07-19T11:37:32.748Z,101206.69
2023-07-19T11:40:06.140Z,101209.88
2023-07-19T11:42:49.444Z,101217.75
2023-07-19T11:45:17.793Z,101221.19
2023-07-19T11:47:49.710Z,101217.63
2023-07-19T11:50:17.146Z,101205.84
2023-07-19T11:52:50.125Z,101212.16
2023-07-19T11:55:18.080Z,101209.81
2023-07-19T11:57:49.539Z,101205.47
2023-07-19T12:00:22.137Z,101208.22
2023-07-19T12:02:50.822Z,101204.31
2023-07-19T12:05:22.494Z,101204.13
2023-07-19T12:07:53.307Z,101207.25
2023-07-19T12:10:21.189Z,101207.84
2023-07-19T12:12:50.026Z,101214.44
2023-07-19T12:15:18.398Z,101202.13
2023-07-19T12:17:46.409Z,101190.38
2023-07-19T12:20:13.961Z,101192.81
2023-07-19T12:22:44.830Z,101196.38
2023-07-19T12:25:11.865Z,101184.44
2023-07-19T12:27:39.469Z,101190.88
2023-07-19T12:30:07.049Z,101181.31
2023-07-19T12:32:34.819Z,101189.19
2023-07-19T12:35:03.217Z,101184.31
2023-07-19T12:37:30.245Z,101186.66
2023-07-19T12:39:57.309Z,101186.41
2023-07-19T12:42:25.096Z,101187.31
2023-07-19T12:44:52.000Z,101191.09
2023-07-19T12:47:20.087Z,101192.66
2023-07-19T12:49:47.356Z,101186.59
2023-07-19T12:52:14.273Z,101170.16
2023-07-19T12:54:41.027Z,101180.53
2023-07-19T12:57:09.643Z,101175.41
2023-07-19T12:59:36.556Z,101167.53
2023-07-19T13:02:06.029Z,101163.66
2023-07-19T13:04:34.995Z,101167.50
2023-07-19T13:07:02.380Z,101166.78
2023-07-19T13:09:29.353Z,101160.59
2023-07-19T13:11:56.384Z,101169.81
2023-07-19T13:14:23.370Z,101167.84
2023-07-19T13:17:05.679Z,101168.63
2023-07-19T13:19:40.631Z,101171.03
2023-07-19T13:22:07.462Z,101168.25
2023-07-19T13:24:34.926Z,101176.88
2023-07-19T13:27:05.912Z,101174.66
2023-07-19T13:29:32.784Z,101177.16
2023-07-19T13:32:00.981Z,101189.00
2023-07-19T13:34:28.940Z,101180.19
2023-07-19T13:36:57.024Z,101185.03
2023-07-19T13:39:28.420Z,101183.22
2023-07-19T13:41:55.416Z,101175.88
2023-07-19T13:44:22.496Z,101173.41
2023-07-19T13:46:49.712Z,101169.53
2023-07-19T13:49:16.909Z,101161.69
2023-07-19T13:51:44.621Z,101148.94
2023-07-19T13:54:11.594Z,101154.56
2023-07-19T13:56:39.168Z,101155.13
2023-07-19T13:59:06.068Z,101134.44
2023-07-19T14:01:33.007Z,101157.53
2023-07-19T14:04:01.260Z,101148.34
2023-07-19T14:06:31.873Z,101158.75
2023-07-19T14:08:59.128Z,101168.16
2023-07-19T14:11:27.893Z,101152.44
2023-07-19T14:13:55.832Z,101157.69
2023-07-19T14:16:23.696Z,101155.19
2023-07-19T14:18:51.128Z,101153.19
2023-07-19T14:21:18.131Z,101138.09
2023-07-19T14:23:45.018Z,101142.47
2023-07-19T14:26:11.963Z,101157.28
2023-07-19T14:28:38.815Z,101160.75
2023-07-19T14:31:06.134Z,101151.56
2023-07-19T14:33:32.982Z,101150.50
2023-07-19T14:36:00.848Z,101145.50
2023-07-19T14:38:31.376Z,101149.50
2023-07-19T14:40:58.495Z,101156.47
2023-07-19T14:43:25.819Z,101145.53
2023-07-19T14:45:55.858Z,101135.94
2023-07-19T14:48:25.267Z,101133.75
2023-07-19T14:50:56.667Z,101132.84
2023-07-19T14:53:24.872Z,101128.00
2023-07-19T14:55:54.053Z,101122.34
2023-07-19T14:58:21.320Z,101126.50
2023-07-19T15:00:51.118Z,101125.81
2023-07-19T15:05:50.323Z,101123.69
2023-07-19T15:08:17.977Z,101103.94
2023-07-19T15:10:45.174Z,101116.47
2023-07-19T15:13:12.534Z,101122.50
2023-07-19T15:15:45.463Z,101112.72
2023-07-19T15:18:14.321Z,101071.75
2023-07-19T15:20:42.836Z,101121.00
2023-07-19T15:23:10.685Z,101120.00
2023-07-19T15:25:37.969Z,101125.09
2023-07-19T15:28:11.452Z,101128.91
2023-07-19T15:30:46.569Z,101122.41
2023-07-19T15:33:13.402Z,101126.00
2023-07-19T15:35:40.772Z,101121.13
2023-07-19T15:38:08.114Z,101125.66
2023-07-19T15:40:35.730Z,101127.94
2023-07-19T15:43:02.548Z,101123.91
2023-07-19T15:45:29.444Z,101125.66
2023-07-19T15:47:56.793Z,101127.28
2023-07-19T15:50:23.764Z,101118.34
2023-07-19T15:52:51.168Z,101126.03
2023-07-19T15:55:18.882Z,101127.19
2023-07-19T15:57:45.790Z,101127.44
2023-07-19T16:00:13.230Z,101129.88
2023-07-19T16:02:40.895Z,101133.66
2023-07-19T16:05:07.992Z,101142.25
2023-07-19T16:07:34.953Z,101141.03
2023-07-19T16:10:04.126Z,101139.56
2023-07-19T16:12:31.283Z,101142.53
2023-07-19T16:14:58.315Z,101141.91
2023-07-19T16:17:25.467Z,101142.56
2023-07-19T16:19:53.250Z,101139.47
2023-07-19T16:22:21.704Z,101131.53
2023-07-19T16:24:48.616Z,101138.38
2023-07-19T16:27:15.451Z,101127.13
2023-07-19T16:29:42.488Z,101133.72
2023-07-19T16:32:09.811Z,101128.38
2023-07-19T16:34:36.832Z,101134.72
2023-07-19T16:37:06.777Z,101137.19
2023-07-19T16:39:34.605Z,101135.94
2023-07-19T16:42:02.547Z,101137.19
2023-07-19T16:44:29.299Z,101139.38
2023-07-19T16:46:56.287Z,101113.41
2023-07-19T16:49:25.315Z,101140.88
2023-07-19T16:51:52.667Z,101139.13
2023-07-19T16:54:19.628Z,101135.19
2023-07-19T16:56:46.500Z,101137.63
2023-07-19T16:59:13.490Z,101137.16
2023-07-19T17:01:40.664Z,101146.47
2023-07-19T17:04:07.608Z,101147.00
2023-07-19T17:06:34.306Z,101137.25
2023-07-19T17:09:01.159Z,101144.59
2023-07-19T17:11:28.188Z,101153.94
2023-07-19T17:13:58.343Z,101144.50
2023-07-19T17:16:25.393Z,101149.78
2023-07-19T17:19:02.109Z,101160.28
2023-07-19T17:21:36.962Z,101158.28
2023-07-19T17:24:03.949Z,101143.72
2023-07-19T17:26:31.010Z,101159.72
2023-07-19T17:28:57.789Z,101163.06
2023-07-19T17:31:25.086Z,101163.44
2023-07-19T17:33:52.303Z,101171.69
2023-07-19T17:36:19.071Z,101175.41
2023-07-19T17:38:45.892Z,101170.53
2023-07-19T17:41:16.073Z,101161.94
2023-07-19T17:43:43.499Z,101169.63
2023-07-19T17:46:10.381Z,101167.16
2023-07-19T17:48:39.240Z,101163.81
2023-07-19T17:51:07.104Z,101172.69
2023-07-19T17:53:34.014Z,101173.44
2023-07-19T17:56:00.911Z,101180.06
2023-07-19T17:58:27.846Z,101181.41
2023-07-19T18:00:55.255Z,101190.53
2023-07-19T18:03:22.284Z,101171.69
2023-07-19T18:05:53.486Z,101188.69
2023-07-19T18:08:23.176Z,101194.56
2023-07-19T18:10:51.672Z,101196.53
2023-07-19T18:13:18.693Z,101195.34
2023-07-19T18:15:47.715Z,101197.84
2023-07-19T18:18:14.949Z,101201.50
2023-07-19T18:20:42.101Z,101195.78
2023-07-19T18:23:12.109Z,101205.19
2023-07-19T18:25:39.072Z,101204.38
2023-07-19T18:28:06.102Z,101201.19
2023-07-19T18:30:33.243Z,101203.72
2023-07-19T18:33:00.231Z,101214.25
2023-07-19T18:35:27.390Z,101181.78
2023-07-19T18:37:55.116Z,101205.16
2023-07-19T18:40:22.241Z,101217.31
2023-07-19T18:42:49.160Z,101216.13
2023-07-19T18:45:16.237Z,101226.38
2023-07-19T18:47:43.091Z,101222.31
2023-07-19T18:50:10.676Z,101229.81
2023-07-19T18:52:39.095Z,101223.34
2023-07-19T18:55:06.845Z,101231.06
2023-07-19T18:57:33.873Z,101235.72
2023-07-19T19:00:01.062Z,101228.19
2023-07-19T19:02:28.092Z,101230.00
2023-07-19T19:04:55.042Z,101240.44
2023-07-19T19:07:22.013Z,101239.50
2023-07-19T19:09:49.096Z,101239.50
2023-07-19T19:12:15.929Z,101248.34
2023-07-19T19:14:46.938Z,101239.72
2023-07-19T19:17:14.190Z,101242.69
2023-07-19T19:19:41.124Z,101246.94
2023-07-19T19:22:08.257Z,101251.53
2023-07-19T19:24:35.227Z,101246.88
2023-07-19T19:29:47.039Z,101247.31
2023-07-19T19:32:14.034Z,101260.19
2023-07-19T19:34:41.139Z,101261.38
2023-07-19T19:37:07.934Z,101267.69
2023-07-19T19:39:35.667Z,101264.78
2023-07-19T19:42:03.358Z,101261.34
2023-07-19T19:44:30.363Z,101265.31
2023-07-19T19:46:57.128Z,101256.78
2023-07-19T19:49:24.092Z,101257.69
2023-07-19T19:51:53.005Z,101267.59
2023-07-19T19:54:20.069Z,101265.72
2023-07-19T19:56:51.412Z,101262.69
2023-07-19T19:59:21.375Z,101276.97
2023-07-19T20:01:49.437Z,101261.72
2023-07-19T20:04:16.450Z,101263.81
2023-07-19T20:06:44.080Z,101267.66
2023-07-19T20:09:13.656Z,101266.53
2023-07-19T20:11:46.903Z,101268.25
2023-07-19T20:14:16.735Z,101254.59
2023-07-19T20:16:43.945Z,101272.59
2023-07-19T20:21:41.160Z,101269.41
2023-07-19T20:24:08.992Z,101254.72
2023-07-19T20:26:37.349Z,101248.81
2023-07-19T20:41:35.242Z,101255.81
2023-07-19T20:44:02.226Z,101262.53
2023-07-19T20:46:34.065Z,101243.69
2023-07-19T20:49:05.655Z,101264.81
2023-07-19T20:51:33.734Z,101268.88
2023-07-19T20:54:00.654Z,101237.56
2023-07-19T20:56:27.914Z,101268.44
2023-07-19T20:58:54.848Z,101258.72
2023-07-19T21:01:22.232Z,101263.69
2023-07-19T21:03:49.663Z,101268.06
2023-07-19T21:06:17.323Z,101247.78
2023-07-19T21:08:44.228Z,101271.19
2023-07-19T21:11:11.216Z,101272.56
2023-07-19T21:13:38.043Z,101279.69
2023-07-19T21:16:05.096Z,101261.91
2023-07-19T21:18:32.197Z,101266.38
2023-07-19T21:21:01.529Z,101258.66
2023-07-19T21:23:28.512Z,101263.25
2023-07-19T21:25:55.290Z,101261.13
2023-07-19T21:28:22.268Z,101264.44
2023-07-19T21:30:49.122Z,101268.06
2023-07-19T21:33:15.942Z,101275.16
2023-07-19T21:35:42.939Z,101262.59
2023-07-19T21:38:09.931Z,101268.09
2023-07-19T21:40:36.899Z,101271.50
2023-07-19T21:43:03.908Z,101270.38
2023-07-19T21:45:30.853Z,101259.81
2023-07-19T21:47:57.939Z,101266.25
2023-07-19T21:50:25.569Z,101265.94
2023-07-19T21:52:52.470Z,101270.03
2023-07-19T21:55:21.515Z,101268.53
2023-07-19T21:57:48.559Z,101277.59
2023-07-19T22:00:15.539Z,101278.41
2023-07-19T22:02:42.405Z,101269.56
2023-07-19T22:05:09.676Z,101271.19
2023-07-19T22:07:36.438Z,101275.47
2023-07-19T22:10:03.532Z,101269.25
2023-07-19T22:12:30.752Z,101276.13
2023-07-19T22:15:07.487Z,101250.69
2023-07-19T22:17:36.871Z,101188.53
2023-07-19T22:20:05.108Z,101277.97
2023-07-19T22:22:32.173Z,101263.50
2023-07-19T22:24:59.009Z,101268.09
2023-07-19T22:27:25.930Z,101273.56
2023-07-19T22:29:53.155Z,101273.09
2023-07-19T22:32:20.138Z,101261.56
2023-07-19T22:34:46.876Z,101274.38
2023-07-19T22:37:13.722Z,101273.06
2023-07-19T22:39:40.632Z,101277.81
2023-07-19T22:42:07.639Z,101277.34
2023-07-19T22:44:34.649Z,101284.56
2023-07-19T22:47:01.495Z,101279.31
2023-07-19T22:49:28.573Z,101281.63
2023-07-19T22:51:55.800Z,101280.13
2023-07-19T22:54:23.029Z,101283.09
2023-07-19T22:56:49.798Z,101282.41
2023-07-19T22:59:16.538Z,101275.81
2023-07-19T23:01:43.263Z,101284.19
2023-07-19T23:04:10.280Z,101280.44
2023-07-19T23:06:37.759Z,101276.50
2023-07-19T23:09:06.172Z,101277.28
2023-07-19T23:11:33.291Z,101278.81
2023-07-19T23:14:00.121Z,101281.41
2023-07-19T23:16:27.015Z,101273.31
2023-07-19T23:18:53.980Z,101271.81
2023-07-19T23:21:20.708Z,101259.66
2023-07-19T23:23:47.454Z,101273.81
2023-07-19T23:26:14.244Z,101278.41
2023-07-19T23:28:41.133Z,101282.75
2023-07-19T23:31:08.673Z,101286.31
2023-07-19T23:33:35.573Z,101254.06
2023-07-19T23:36:02.699Z,101276.25
2023-07-19T23:38:29.943Z,101266.69
2023-07-19T23:40:56.996Z,101283.25
2023-07-19T23:43:23.892Z,101294.38
2023-07-19T23:45:50.672Z,101288.34
2023-07-19T23:48:17.861Z,101298.91
2023-07-19T23:50:45.264Z,101290.09
2023-07-19T23:53:12.253Z,101289.91
2023-07-19T23:55:39.293Z,101296.41
2023-07-19T23:58:06.135Z,101287.91
